createdAt,value
2022-09-15T00:00:05.096Z,3.50
2022-09-15T00:01:05.099Z,3.00
2022-09-15T00:02:05.263Z,3.10
2022-09-15T00:03:05.137Z,3.30
2022-09-15T00:04:05.066Z,3.10
2022-09-15T00:05:05.061Z,3.30
2022-09-15T00:06:05.036Z,3.30
2022-09-15T00:07:05.034Z,3.00
2022-09-15T00:08:05.004Z,2.70
2022-09-15T00:09:05.013Z,3.00
2022-09-15T00:10:05.000Z,2.90
2022-09-15T00:11:04.997Z,2.70
2022-09-15T00:12:04.989Z,3.00
2022-09-15T00:13:04.975Z,2.50
2022-09-15T00:14:04.951Z,2.80
2022-09-15T00:15:04.927Z,2.80
2022-09-15T00:16:04.944Z,2.60
2022-09-15T00:17:04.959Z,2.90
2022-09-15T00:18:04.923Z,2.50
2022-09-15T00:19:04.878Z,2.50
2022-09-15T00:20:04.869Z,2.60
2022-09-15T00:21:04.882Z,2.80
2022-09-15T00:22:04.859Z,2.50
2022-09-15T00:23:04.878Z,2.90
2022-09-15T00:24:04.839Z,2.40
2022-09-15T00:25:04.812Z,2.40
2022-09-15T00:26:04.802Z,2.60
2022-09-15T00:27:04.820Z,2.60
2022-09-15T00:28:04.778Z,2.40
2022-09-15T00:29:04.781Z,2.60
2022-09-15T00:30:04.782Z,2.30
2022-09-15T00:31:04.807Z,2.40
2022-09-15T00:32:04.751Z,2.40
2022-09-15T00:33:04.740Z,2.40
2022-09-15T00:34:04.730Z,2.20
2022-09-15T00:35:04.730Z,2.60
2022-09-15T00:36:04.690Z,2.30
2022-09-15T00:37:04.682Z,2.40
2022-09-15T00:38:04.675Z,2.50
2022-09-15T00:39:04.684Z,2.30
2022-09-15T00:40:04.716Z,2.40
2022-09-15T00:41:04.646Z,2.40
2022-09-15T00:42:04.659Z,2.50
2022-09-15T00:43:04.607Z,2.40
2022-09-15T00:44:04.608Z,2.40
2022-09-15T00:45:04.585Z,2.20
2022-09-15T00:46:04.650Z,2.30
2022-09-15T00:47:18.840Z,2.50
2022-09-15T00:48:05.569Z,2.30
2022-09-15T00:49:04.546Z,2.50
2022-09-15T00:50:04.560Z,2.20
2022-09-15T00:51:04.550Z,2.30
2022-09-15T00:52:04.531Z,2.60
2022-09-15T00:53:04.498Z,2.40
2022-09-15T00:54:04.486Z,2.20
2022-09-15T00:55:04.478Z,2.20
2022-09-15T00:56:04.492Z,2.40
2022-09-15T00:57:04.466Z,2.40
2022-09-15T00:58:04.470Z,2.60
2022-09-15T00:59:04.426Z,2.60
2022-09-15T01:00:04.418Z,2.50
2022-09-15T01:01:04.456Z,2.30
2022-09-15T01:02:04.482Z,2.20
2022-09-15T01:03:04.390Z,2.10
2022-09-15T01:04:04.401Z,2.10
2022-09-15T01:05:04.359Z,2.60
2022-09-15T01:06:04.368Z,2.30
2022-09-15T01:07:04.364Z,2.20
2022-09-15T01:08:04.337Z,2.40
2022-09-15T01:09:04.366Z,2.40
2022-09-15T01:10:04.338Z,2.30
2022-09-15T01:11:04.291Z,2.70
2022-09-15T01:12:04.287Z,2.60
2022-09-15T01:13:04.269Z,2.20
2022-09-15T01:14:04.281Z,2.40
2022-09-15T01:15:04.283Z,2.10
2022-09-15T01:16:04.302Z,2.30
2022-09-15T01:17:04.241Z,2.40
2022-09-15T01:18:04.225Z,2.30
2022-09-15T01:19:04.214Z,2.20
2022-09-15T01:20:04.223Z,2.00
2022-09-15T01:21:04.187Z,2.10
2022-09-15T01:22:04.204Z,1.90
2022-09-15T01:23:04.161Z,2.40
2022-09-15T01:24:04.173Z,2.30
2022-09-15T01:25:04.182Z,2.40
2022-09-15T01:26:04.144Z,2.20
2022-09-15T01:27:24.132Z,2.30
2022-09-15T01:28:05.115Z,2.40
2022-09-15T01:29:04.103Z,2.30
2022-09-15T01:30:04.104Z,2.20
2022-09-15T01:31:04.090Z,2.40
2022-09-15T01:32:04.166Z,2.40
2022-09-15T01:33:04.150Z,2.50
2022-09-15T01:34:04.038Z,2.00
2022-09-15T01:35:04.064Z,2.30
2022-09-15T01:36:04.051Z,2.30
2022-09-15T01:37:04.014Z,2.20
2022-09-15T01:38:04.118Z,2.30
2022-09-15T01:39:03.980Z,2.30
2022-09-15T01:40:04.035Z,2.30
2022-09-15T01:41:03.972Z,2.20
2022-09-15T01:42:03.985Z,2.10
2022-09-15T01:43:03.969Z,2.00
2022-09-15T01:44:03.926Z,2.10
2022-09-15T01:45:03.917Z,2.20
2022-09-15T01:46:04.000Z,2.30
2022-09-15T01:47:03.894Z,1.90
2022-09-15T01:48:03.919Z,1.80
2022-09-15T01:49:03.892Z,1.90
2022-09-15T01:50:03.858Z,2.00
2022-09-15T01:51:03.859Z,2.00
2022-09-15T01:52:03.847Z,2.00
2022-09-15T01:53:03.840Z,2.20
2022-09-15T01:54:03.860Z,2.10
2022-09-15T01:55:03.806Z,2.20
2022-09-15T01:56:03.814Z,2.00
2022-09-15T01:57:03.784Z,2.00
2022-09-15T01:58:03.784Z,2.00
2022-09-15T01:59:03.768Z,2.00
2022-09-15T02:00:03.795Z,1.80
2022-09-15T02:01:03.798Z,2.00
2022-09-15T02:02:03.800Z,1.90
2022-09-15T02:03:03.730Z,2.10
2022-09-15T02:04:03.701Z,2.10
2022-09-15T02:05:03.710Z,2.00
2022-09-15T02:06:03.681Z,2.20
2022-09-15T02:07:03.671Z,2.00
2022-09-15T02:08:03.658Z,1.90
2022-09-15T02:09:03.688Z,2.10
2022-09-15T02:10:03.660Z,1.90
2022-09-15T02:11:03.633Z,1.90
2022-09-15T02:12:03.615Z,1.90
2022-09-15T02:13:03.604Z,1.90
2022-09-15T02:14:03.591Z,1.90
2022-09-15T02:15:03.605Z,2.10
2022-09-15T02:16:03.627Z,1.80
2022-09-15T02:17:03.572Z,1.80
2022-09-15T02:18:03.548Z,2.00
2022-09-15T02:19:03.542Z,1.70
2022-09-15T02:20:03.550Z,1.90
2022-09-15T02:21:03.545Z,1.80
2022-09-15T02:22:03.535Z,2.10
2022-09-15T02:23:03.516Z,1.80
2022-09-15T02:24:03.496Z,2.00
2022-09-15T02:25:03.471Z,1.80
2022-09-15T02:26:03.519Z,1.80
2022-09-15T02:27:03.455Z,1.80
2022-09-15T02:28:03.462Z,1.60
2022-09-15T02:29:03.426Z,1.90
2022-09-15T02:30:03.415Z,1.90
2022-09-15T02:31:03.404Z,2.00
2022-09-15T02:32:06.971Z,1.80
2022-09-15T02:33:03.440Z,2.00
2022-09-15T02:34:03.414Z,1.80
2022-09-15T02:35:03.421Z,2.00
2022-09-15T02:36:03.346Z,1.80
2022-09-15T02:37:03.347Z,1.90
2022-09-15T02:38:03.330Z,1.80
2022-09-15T02:39:03.329Z,1.70
2022-09-15T02:40:03.362Z,1.70
2022-09-15T02:41:03.301Z,2.00
2022-09-15T02:42:03.298Z,1.60
2022-09-15T02:43:03.327Z,1.90
2022-09-15T02:44:03.275Z,1.80
2022-09-15T02:45:03.256Z,2.00
2022-09-15T02:46:03.356Z,1.70
2022-09-15T02:47:03.229Z,1.90
2022-09-15T02:48:03.837Z,2.00
2022-09-15T02:49:03.227Z,1.70
2022-09-15T02:50:03.200Z,1.80
2022-09-15T02:51:03.195Z,1.80
2022-09-15T02:52:03.169Z,1.90
2022-09-15T02:53:03.162Z,2.00
2022-09-15T02:54:03.174Z,1.70
2022-09-15T02:55:03.169Z,1.80
2022-09-15T02:56:03.140Z,1.90
2022-09-15T02:57:03.113Z,1.80
2022-09-15T02:58:03.117Z,1.80
2022-09-15T02:59:03.093Z,1.90
2022-09-15T03:00:03.097Z,1.80
2022-09-15T03:01:03.169Z,1.80
2022-09-15T03:02:03.138Z,1.80
2022-09-15T03:03:03.045Z,2.10
2022-09-15T03:04:03.032Z,1.80
2022-09-15T03:05:03.025Z,1.70
2022-09-15T03:06:03.034Z,1.90
2022-09-15T03:07:03.014Z,1.90
2022-09-15T03:08:03.006Z,1.90
2022-09-15T03:09:02.977Z,2.00
2022-09-15T03:10:02.966Z,1.90
2022-09-15T03:11:02.964Z,1.80
2022-09-15T03:12:02.979Z,1.70
2022-09-15T03:13:02.955Z,1.90
2022-09-15T03:14:02.940Z,1.80
2022-09-15T03:15:02.911Z,1.60
2022-09-15T03:16:02.957Z,1.60
2022-09-15T03:17:02.904Z,1.70
2022-09-15T03:18:02.892Z,1.80
2022-09-15T03:19:02.888Z,1.90
2022-09-15T03:20:02.855Z,1.70
2022-09-15T03:21:02.845Z,1.70
2022-09-15T03:22:02.857Z,1.90
2022-09-15T03:23:02.845Z,1.70
2022-09-15T03:24:02.822Z,1.70
2022-09-15T03:25:02.819Z,2.20
2022-09-15T03:26:02.791Z,1.80
2022-09-15T03:27:02.806Z,1.80
2022-09-15T03:28:02.776Z,1.60
2022-09-15T03:29:02.764Z,1.60
2022-09-15T03:30:02.791Z,1.90
2022-09-15T03:31:02.799Z,1.80
2022-09-15T03:32:02.725Z,1.70
2022-09-15T03:33:02.735Z,1.70
2022-09-15T03:34:02.720Z,1.70
2022-09-15T03:35:02.704Z,1.80
2022-09-15T03:36:02.690Z,1.80
2022-09-15T03:37:02.666Z,1.70
2022-09-15T03:38:02.668Z,1.70
2022-09-15T03:39:02.674Z,1.60
2022-09-15T03:40:02.723Z,1.80
2022-09-15T03:41:02.651Z,2.00
2022-09-15T03:42:02.628Z,2.00
2022-09-15T03:43:02.613Z,1.70
2022-09-15T03:44:02.584Z,1.70
2022-09-15T03:45:02.585Z,1.80
2022-09-15T03:46:02.710Z,1.60
2022-09-15T03:47:02.573Z,1.70
2022-09-15T03:48:02.545Z,1.70
2022-09-15T03:49:02.533Z,1.90
2022-09-15T03:50:02.518Z,1.50
2022-09-15T03:51:02.525Z,1.90
2022-09-15T03:52:02.509Z,1.70
2022-09-15T03:53:02.497Z,1.80
2022-09-15T03:54:02.472Z,1.60
2022-09-15T03:55:02.518Z,1.70
2022-09-15T03:56:02.452Z,1.50
2022-09-15T03:57:02.467Z,1.70
2022-09-15T03:58:02.452Z,1.90
2022-09-15T03:59:02.417Z,1.60
2022-09-15T04:00:02.404Z,1.80
2022-09-15T04:01:02.460Z,1.60
2022-09-15T04:02:02.499Z,1.60
2022-09-15T04:03:02.388Z,1.50
2022-09-15T04:04:02.402Z,1.60
2022-09-15T04:05:02.384Z,1.60
2022-09-15T04:06:02.338Z,1.60
2022-09-15T04:07:02.353Z,1.60
2022-09-15T04:08:02.335Z,1.70
2022-09-15T04:09:02.320Z,1.50
2022-09-15T04:10:02.312Z,1.70
2022-09-15T04:11:02.284Z,1.50
2022-09-15T04:12:02.290Z,1.40
2022-09-15T04:13:02.263Z,1.50
2022-09-15T04:14:02.263Z,1.70
2022-09-15T04:15:02.281Z,1.60
2022-09-15T04:16:02.259Z,1.60
2022-09-15T04:17:02.217Z,1.60
2022-09-15T04:18:02.224Z,1.50
2022-09-15T04:19:02.203Z,1.60
2022-09-15T04:20:02.235Z,1.20
2022-09-15T04:21:02.206Z,1.60
2022-09-15T04:22:02.160Z,1.50
2022-09-15T04:23:02.156Z,1.50
2022-09-15T04:24:02.174Z,1.50
2022-09-15T04:25:02.146Z,1.60
2022-09-15T04:26:02.134Z,1.50
2022-09-15T04:27:02.121Z,1.50
2022-09-15T04:28:02.094Z,1.50
2022-09-15T04:29:04.466Z,1.40
2022-09-15T04:30:02.108Z,1.70
2022-09-15T04:31:02.071Z,1.60
2022-09-15T04:32:02.055Z,1.60
2022-09-15T04:33:02.037Z,1.70
2022-09-15T04:34:02.056Z,1.40
2022-09-15T04:35:02.018Z,1.70
2022-09-15T04:36:02.016Z,1.60
2022-09-15T04:37:02.028Z,1.50
2022-09-15T04:38:01.994Z,1.40
2022-09-15T04:39:01.970Z,1.40
2022-09-15T04:40:02.210Z,1.40
2022-09-15T04:41:01.947Z,1.60
2022-09-15T04:42:01.936Z,1.40
2022-09-15T04:43:01.930Z,1.40
2022-09-15T04:44:01.938Z,1.50
2022-09-15T04:45:01.954Z,1.50
2022-09-15T04:46:01.892Z,1.70
2022-09-15T04:47:01.939Z,1.40
2022-09-15T04:48:01.884Z,1.60
2022-09-15T04:49:01.865Z,1.40
2022-09-15T04:50:01.874Z,1.30
2022-09-15T04:51:01.848Z,1.10
2022-09-15T04:52:01.862Z,1.30
2022-09-15T04:53:01.825Z,1.20
2022-09-15T04:54:01.833Z,1.20
2022-09-15T04:55:01.825Z,1.20
2022-09-15T04:56:01.777Z,1.60
2022-09-15T04:57:01.767Z,1.30
2022-09-15T04:58:01.755Z,1.10
2022-09-15T04:59:04.157Z,1.10
2022-09-15T05:00:01.771Z,1.30
2022-09-15T05:01:01.811Z,1.30
2022-09-15T05:02:01.758Z,1.40
2022-09-15T05:03:01.735Z,1.20
2022-09-15T05:04:01.696Z,1.30
2022-09-15T05:05:01.697Z,1.10
2022-09-15T05:06:01.707Z,1.00
2022-09-15T05:07:01.654Z,1.30
2022-09-15T05:08:01.656Z,1.40
2022-09-15T05:09:02.924Z,1.40
2022-09-15T05:10:01.641Z,1.20
2022-09-15T05:11:01.626Z,1.30
2022-09-15T05:12:01.653Z,1.20
2022-09-15T05:13:01.589Z,1.20
2022-09-15T05:14:01.574Z,1.10
2022-09-15T05:15:01.569Z,1.30
2022-09-15T05:16:01.618Z,1.00
2022-09-15T05:17:01.577Z,1.00
2022-09-15T05:18:01.533Z,1.00
2022-09-15T05:19:01.530Z,1.00
2022-09-15T05:20:01.546Z,1.30
2022-09-15T05:21:01.517Z,1.00
2022-09-15T05:22:01.528Z,1.10
2022-09-15T05:23:01.503Z,1.10
2022-09-15T05:24:01.461Z,1.00
2022-09-15T05:25:01.475Z,1.10
2022-09-15T05:26:01.443Z,1.20
2022-09-15T05:27:01.443Z,1.80
2022-09-15T05:28:01.442Z,1.10
2022-09-15T05:29:01.454Z,1.20
2022-09-15T05:30:31.706Z,1.10
2022-09-15T05:31:02.459Z,1.10
2022-09-15T05:32:01.390Z,1.10
2022-09-15T05:33:01.377Z,1.00
2022-09-15T05:34:01.397Z,1.00
2022-09-15T05:35:01.339Z,1.00
2022-09-15T05:36:01.326Z,1.00
2022-09-15T05:37:01.319Z,1.70
2022-09-15T05:38:01.341Z,11.70
2022-09-15T05:39:01.320Z,2.20
2022-09-15T05:40:05.152Z,1.60
2022-09-15T05:41:02.269Z,1.20
2022-09-15T05:42:01.259Z,1.20
2022-09-15T05:43:01.280Z,1.10
2022-09-15T05:44:01.261Z,0.90
2022-09-15T05:45:01.249Z,1.10
2022-09-15T05:46:01.212Z,1.00
2022-09-15T05:47:01.304Z,1.00
2022-09-15T05:48:01.190Z,1.00
2022-09-15T05:49:01.220Z,1.10
2022-09-15T05:50:01.198Z,1.10
2022-09-15T05:51:01.184Z,1.40
2022-09-15T05:52:01.144Z,1.10
2022-09-15T05:53:01.136Z,1.10
2022-09-15T05:54:01.171Z,1.10
2022-09-15T05:55:01.126Z,1.00
2022-09-15T05:56:01.136Z,1.10
2022-09-15T05:57:01.138Z,1.00
2022-09-15T05:58:01.078Z,0.80
2022-09-15T05:59:01.065Z,1.10
2022-09-15T06:00:01.090Z,1.00
2022-09-15T06:01:01.060Z,0.80
2022-09-15T06:02:01.129Z,0.90
2022-09-15T06:03:01.060Z,1.10
2022-09-15T06:04:01.011Z,0.80
2022-09-15T06:05:01.005Z,0.90
2022-09-15T06:06:01.011Z,0.80
2022-09-15T06:07:01.006Z,1.10
2022-09-15T06:08:01.004Z,0.90
2022-09-15T06:09:01.253Z,0.90
2022-09-15T06:10:00.973Z,0.80
2022-09-15T06:11:00.969Z,1.00
2022-09-15T06:12:00.935Z,0.80
2022-09-15T06:13:00.989Z,0.90
2022-09-15T06:14:00.928Z,1.10
2022-09-15T06:15:00.885Z,0.90
2022-09-15T06:16:00.921Z,1.00
2022-09-15T06:17:00.872Z,1.10
2022-09-15T06:18:00.880Z,6.80
2022-09-15T06:19:00.858Z,2.00
2022-09-15T06:20:00.831Z,1.20
2022-09-15T06:21:00.835Z,0.90
2022-09-15T06:22:00.813Z,0.90
2022-09-15T06:23:00.810Z,0.90
2022-09-15T06:24:00.829Z,1.00
2022-09-15T06:25:00.792Z,0.80
2022-09-15T06:26:00.782Z,1.00
2022-09-15T06:27:00.751Z,0.90
2022-09-15T06:28:00.762Z,1.00
2022-09-15T06:29:00.746Z,0.90
2022-09-15T06:30:00.756Z,0.80
2022-09-15T06:31:00.710Z,1.00
2022-09-15T06:32:00.755Z,0.80
2022-09-15T06:33:00.687Z,1.00
2022-09-15T06:34:00.693Z,1.40
2022-09-15T06:35:00.703Z,1.20
2022-09-15T06:36:00.684Z,0.80
2022-09-15T06:37:00.643Z,0.80
2022-09-15T06:38:00.633Z,0.90
2022-09-15T06:39:00.618Z,0.90
2022-09-15T06:40:00.636Z,0.60
2022-09-15T06:41:00.627Z,0.80
2022-09-15T06:42:03.701Z,0.90
2022-09-15T06:43:00.573Z,0.90
2022-09-15T06:44:00.567Z,1.00
2022-09-15T06:45:00.585Z,0.90
2022-09-15T06:46:00.601Z,1.00
2022-09-15T06:47:00.558Z,0.80
2022-09-15T06:48:22.857Z,0.80
2022-09-15T06:49:01.537Z,0.70
2022-09-15T06:50:00.498Z,0.90
2022-09-15T06:51:00.503Z,1.00
2022-09-15T06:52:00.492Z,0.80
2022-09-15T06:53:00.496Z,1.50
2022-09-15T06:54:00.454Z,0.90
2022-09-15T06:55:01.435Z,1.00
2022-09-15T06:56:00.431Z,0.90
2022-09-15T06:57:00.470Z,0.80
2022-09-15T06:58:00.437Z,0.80
2022-09-15T06:59:00.423Z,0.90
2022-09-15T07:00:00.387Z,0.90
2022-09-15T07:01:00.375Z,0.90
2022-09-15T07:02:04.950Z,0.90
2022-09-15T07:03:00.518Z,0.90
2022-09-15T07:04:00.373Z,0.80
2022-09-15T07:05:00.329Z,0.90
2022-09-15T07:06:00.323Z,0.90
2022-09-15T07:07:00.339Z,0.90
2022-09-15T07:08:00.307Z,0.90
2022-09-15T07:09:00.340Z,0.90
2022-09-15T07:10:00.309Z,0.90
2022-09-15T07:11:00.335Z,0.90
2022-09-15T07:12:00.255Z,1.00
2022-09-15T07:13:00.255Z,0.90
2022-09-15T07:14:00.274Z,1.10
2022-09-15T07:15:00.249Z,1.00
2022-09-15T07:16:00.280Z,1.00
2022-09-15T07:17:00.194Z,0.90
2022-09-15T07:18:00.302Z,1.00
2022-09-15T07:19:00.206Z,0.90
2022-09-15T07:20:00.206Z,0.80
2022-09-15T07:21:00.174Z,0.70
2022-09-15T07:22:00.139Z,0.90
2022-09-15T07:23:00.129Z,0.80
2022-09-15T07:24:03.867Z,0.90
2022-09-15T07:25:01.123Z,0.90
2022-09-15T07:26:00.118Z,1.00
2022-09-15T07:27:00.109Z,0.90
2022-09-15T07:28:00.079Z,0.90
2022-09-15T07:29:00.087Z,0.80
2022-09-15T07:30:00.097Z,0.90
2022-09-15T07:31:00.066Z,1.00
2022-09-15T07:32:00.131Z,1.10
2022-09-15T07:33:00.053Z,1.00
2022-09-15T07:34:00.013Z,1.10
2022-09-15T07:35:00.071Z,0.80
2022-09-15T07:35:59.997Z,0.80
2022-09-15T07:36:59.983Z,1.10
2022-09-15T07:37:59.986Z,1.00
2022-09-15T07:38:59.996Z,0.80
2022-09-15T07:40:00.063Z,1.80
2022-09-15T07:40:59.933Z,1.10
2022-09-15T07:41:59.954Z,0.90
2022-09-15T07:42:59.936Z,0.90
2022-09-15T07:43:59.896Z,0.90
2022-09-15T07:44:59.886Z,0.90
2022-09-15T07:45:59.951Z,1.10
2022-09-15T07:46:59.860Z,0.90
2022-09-15T07:47:59.870Z,0.90
2022-09-15T07:48:59.862Z,1.00
2022-09-15T07:49:59.868Z,0.90
2022-09-15T07:50:59.830Z,0.80
2022-09-15T07:51:59.807Z,1.10
2022-09-15T07:52:59.900Z,1.00
2022-09-15T07:53:59.797Z,0.90
2022-09-15T07:54:59.810Z,0.90
2022-09-15T07:55:59.762Z,1.10
2022-09-15T07:56:59.752Z,0.90
2022-09-15T07:57:59.759Z,0.90
2022-09-15T07:58:59.828Z,0.90
2022-09-15T07:59:59.728Z,1.10
2022-09-15T08:00:59.828Z,1.00
2022-09-15T08:01:59.775Z,0.90
2022-09-15T08:02:59.699Z,1.10
2022-09-15T08:03:59.704Z,1.10
2022-09-15T08:04:59.673Z,1.00
2022-09-15T08:05:59.668Z,1.00
2022-09-15T08:06:59.667Z,1.10
2022-09-15T08:07:59.636Z,1.40
2022-09-15T08:09:01.010Z,2.10
2022-09-15T08:09:59.652Z,1.00
2022-09-15T08:10:59.603Z,1.00
2022-09-15T08:11:59.604Z,0.90
2022-09-15T08:12:59.571Z,1.20
2022-09-15T08:13:59.565Z,1.00
2022-09-15T08:14:59.565Z,1.00
2022-09-15T08:15:59.590Z,0.90
2022-09-15T08:16:59.554Z,1.00
2022-09-15T08:17:59.550Z,0.90
2022-09-15T08:18:59.505Z,1.10
2022-09-15T08:19:59.511Z,3.40
2022-09-15T08:20:59.481Z,1.00
2022-09-15T08:21:59.481Z,0.90
2022-09-15T08:22:59.493Z,1.30
2022-09-15T08:23:59.454Z,0.90
2022-09-15T08:24:59.453Z,0.90
2022-09-15T08:25:59.444Z,0.90
2022-09-15T08:26:59.419Z,1.10
2022-09-15T08:27:59.443Z,1.00
2022-09-15T08:28:59.465Z,1.20
2022-09-15T08:29:59.385Z,1.00
2022-09-15T08:30:59.409Z,1.00
2022-09-15T08:31:59.393Z,1.10
2022-09-15T08:32:59.385Z,1.10
2022-09-15T08:33:59.377Z,1.10
2022-09-15T08:34:59.374Z,1.00
2022-09-15T08:35:59.318Z,1.10
2022-09-15T08:36:59.325Z,1.10
2022-09-15T08:37:59.296Z,1.10
2022-09-15T08:38:59.327Z,1.00
2022-09-15T08:39:59.325Z,0.90
2022-09-15T08:40:59.327Z,1.00
2022-09-15T08:41:59.267Z,1.10
2022-09-15T08:42:59.244Z,1.00
2022-09-15T08:43:59.235Z,1.10
2022-09-15T08:44:59.273Z,1.00
2022-09-15T08:45:59.292Z,1.10
2022-09-15T08:46:59.195Z,1.30
2022-09-15T08:47:59.195Z,0.90
2022-09-15T08:49:02.795Z,1.10
2022-09-15T08:49:59.548Z,1.10
2022-09-15T08:50:59.159Z,0.90
2022-09-15T08:51:59.160Z,1.10
2022-09-15T08:52:59.133Z,1.20
2022-09-15T08:53:59.119Z,1.00
2022-09-15T08:54:59.120Z,1.00
2022-09-15T08:55:59.119Z,0.90
2022-09-15T08:56:59.097Z,0.90
2022-09-15T08:57:59.128Z,0.90
2022-09-15T08:58:59.059Z,1.10
2022-09-15T08:59:59.124Z,1.20
2022-09-15T09:00:59.049Z,1.00
2022-09-15T09:01:59.083Z,0.90
2022-09-15T09:02:59.070Z,1.00
2022-09-15T09:03:59.006Z,1.00
2022-09-15T09:04:59.073Z,0.90
2022-09-15T09:05:59.044Z,1.00
2022-09-15T09:06:58.995Z,1.00
2022-09-15T09:07:58.973Z,0.90
2022-09-15T09:08:59.009Z,1.10
2022-09-15T09:09:59.030Z,1.10
2022-09-15T09:10:58.929Z,1.10
2022-09-15T09:11:58.923Z,1.10
2022-09-15T09:12:58.938Z,1.00
2022-09-15T09:13:58.927Z,1.20
2022-09-15T09:14:58.920Z,1.00
2022-09-15T09:15:59.053Z,0.90
2022-09-15T09:16:58.860Z,1.00
2022-09-15T09:17:58.867Z,1.00
2022-09-15T09:18:58.864Z,0.90
2022-09-15T09:19:58.852Z,1.00
2022-09-15T09:20:58.815Z,1.00
2022-09-15T09:21:58.835Z,1.10
2022-09-15T09:22:58.873Z,0.80
2022-09-15T09:23:58.807Z,1.10
2022-09-15T09:24:58.783Z,1.10
2022-09-15T09:25:58.787Z,1.10
2022-09-15T09:26:58.753Z,1.10
2022-09-15T09:27:58.740Z,0.90
2022-09-15T09:28:58.760Z,1.00
2022-09-15T09:29:58.760Z,0.80
2022-09-15T09:30:58.751Z,1.10
2022-09-15T09:31:58.715Z,1.00
2022-09-15T09:32:58.682Z,0.90
2022-09-15T09:33:58.680Z,1.00
2022-09-15T09:34:58.670Z,1.00
2022-09-15T09:35:58.689Z,1.00
2022-09-15T09:36:58.654Z,1.00
2022-09-15T09:37:58.652Z,0.90
2022-09-15T09:38:58.617Z,1.00
2022-09-15T09:39:58.696Z,1.10
2022-09-15T09:41:02.039Z,1.00
2022-09-15T09:41:58.616Z,0.80
2022-09-15T09:43:06.689Z,1.20
2022-09-15T09:43:58.561Z,1.10
2022-09-15T09:44:58.549Z,1.00
2022-09-15T09:45:58.579Z,0.90
2022-09-15T09:46:58.561Z,1.00
2022-09-15T09:48:01.662Z,0.90
2022-09-15T09:48:58.512Z,1.00
2022-09-15T09:49:58.493Z,1.10
2022-09-15T09:50:58.482Z,1.00
2022-09-15T09:51:58.497Z,1.00
2022-09-15T09:52:58.469Z,0.90
2022-09-15T09:53:58.525Z,0.90
2022-09-15T09:54:58.438Z,1.00
2022-09-15T09:55:58.473Z,0.80
2022-09-15T09:56:58.455Z,1.20
2022-09-15T09:57:58.421Z,1.00
2022-09-15T09:58:58.411Z,1.00
2022-09-15T09:59:58.401Z,1.00
2022-09-15T10:00:58.458Z,1.00
2022-09-15T10:01:58.361Z,0.90
2022-09-15T10:02:58.350Z,0.80
2022-09-15T10:03:58.420Z,0.90
2022-09-15T10:04:58.440Z,1.00
2022-09-15T10:05:58.349Z,1.10
2022-09-15T10:06:58.305Z,1.00
2022-09-15T10:07:58.297Z,0.80
2022-09-15T10:08:58.314Z,0.80
2022-09-15T10:09:58.306Z,0.70
2022-09-15T10:10:58.300Z,0.90
2022-09-15T10:11:58.248Z,1.00
2022-09-15T10:12:58.288Z,1.00
2022-09-15T10:13:58.257Z,0.90
2022-09-15T10:14:58.235Z,1.00
2022-09-15T10:15:58.217Z,0.90
2022-09-15T10:16:58.237Z,0.90
2022-09-15T10:17:58.182Z,0.90
2022-09-15T10:18:58.169Z,0.90
2022-09-15T10:19:58.547Z,0.80
2022-09-15T10:20:58.179Z,0.90
2022-09-15T10:21:58.151Z,1.10
2022-09-15T10:22:58.150Z,0.90
2022-09-15T10:23:58.163Z,0.90
2022-09-15T10:24:58.129Z,0.80
2022-09-15T10:25:59.985Z,1.00
2022-09-15T10:26:58.096Z,0.80
2022-09-15T10:27:58.112Z,0.80
2022-09-15T10:28:58.061Z,0.90
2022-09-15T10:29:58.063Z,0.90
2022-09-15T10:30:58.042Z,0.90
2022-09-15T10:31:58.098Z,0.80
2022-09-15T10:32:58.027Z,1.00
2022-09-15T10:33:58.058Z,1.10
2022-09-15T10:34:57.994Z,0.90
2022-09-15T10:35:58.004Z,1.00
2022-09-15T10:36:57.973Z,1.20
2022-09-15T10:37:57.963Z,0.70
2022-09-15T10:38:58.003Z,0.90
2022-09-15T10:39:57.987Z,0.80
2022-09-15T10:40:57.935Z,0.90
2022-09-15T10:41:57.931Z,0.90
2022-09-15T10:42:57.914Z,0.90
2022-09-15T10:43:58.003Z,0.90
2022-09-15T10:44:57.911Z,0.80
2022-09-15T10:45:57.929Z,0.80
2022-09-15T10:46:57.862Z,0.90
2022-09-15T10:47:57.846Z,0.80
2022-09-15T10:48:57.856Z,0.70
2022-09-15T10:49:57.858Z,0.80
2022-09-15T10:50:57.864Z,0.80
2022-09-15T10:51:57.807Z,0.80
2022-09-15T10:52:57.792Z,1.10
2022-09-15T10:53:57.870Z,0.90
2022-09-15T10:54:57.785Z,0.80
2022-09-15T10:55:57.848Z,1.00
2022-09-15T10:56:57.747Z,0.80
2022-09-15T10:57:57.768Z,1.10
2022-09-15T10:58:57.725Z,0.90
2022-09-15T10:59:57.750Z,1.10
2022-09-15T11:00:57.759Z,1.00
2022-09-15T11:01:57.768Z,0.90
2022-09-15T11:02:57.681Z,0.80
2022-09-15T11:03:57.705Z,0.90
2022-09-15T11:04:57.694Z,0.80
2022-09-15T11:05:57.663Z,0.90
2022-09-15T11:06:57.647Z,1.00
2022-09-15T11:07:57.656Z,0.80
2022-09-15T11:08:57.619Z,0.90
2022-09-15T11:09:57.611Z,0.80
2022-09-15T11:10:57.596Z,0.90
2022-09-15T11:11:57.616Z,0.80
2022-09-15T11:12:57.596Z,0.70
2022-09-15T11:13:57.589Z,0.80
2022-09-15T11:14:57.562Z,0.80
2022-09-15T11:15:57.581Z,0.70
2022-09-15T11:16:57.534Z,0.80
2022-09-15T11:17:57.522Z,0.90
2022-09-15T11:18:57.530Z,0.70
2022-09-15T11:19:57.489Z,0.60
2022-09-15T11:20:57.498Z,0.70
2022-09-15T11:21:57.493Z,0.50
2022-09-15T11:22:57.490Z,0.40
2022-09-15T11:23:57.483Z,0.60
2022-09-15T11:24:57.521Z,0.80
2022-09-15T11:25:57.458Z,0.60
2022-09-15T11:26:57.425Z,0.70
2022-09-15T11:27:57.409Z,0.60
2022-09-15T11:28:57.395Z,1.00
2022-09-15T11:29:57.430Z,1.00
2022-09-15T11:30:57.437Z,1.00
2022-09-15T11:31:57.490Z,1.40
2022-09-15T11:32:58.186Z,2.50
2022-09-15T11:33:57.344Z,1.70
2022-09-15T11:34:57.337Z,2.10
2022-09-15T11:35:57.347Z,1.60
2022-09-15T11:36:57.325Z,1.60
2022-09-15T11:37:57.288Z,1.80
2022-09-15T11:38:57.279Z,1.50
2022-09-15T11:39:57.370Z,1.60
2022-09-15T11:40:57.273Z,1.70
2022-09-15T11:41:57.286Z,1.70
2022-09-15T11:42:57.235Z,1.80
2022-09-15T11:43:57.222Z,1.50
2022-09-15T11:44:57.214Z,1.50
2022-09-15T11:45:57.225Z,1.60
2022-09-15T11:46:57.270Z,1.50
2022-09-15T11:47:57.275Z,1.70
2022-09-15T11:48:57.171Z,1.80
2022-09-15T11:49:57.186Z,1.80
2022-09-15T11:50:57.146Z,1.90
2022-09-15T11:51:57.143Z,1.80
2022-09-15T11:52:57.135Z,1.80
2022-09-15T11:53:57.115Z,1.80
2022-09-15T11:54:57.137Z,1.90
2022-09-15T11:55:57.091Z,1.90
2022-09-15T11:56:57.081Z,1.80
2022-09-15T11:57:57.084Z,1.80
2022-09-15T11:58:57.092Z,1.70
2022-09-15T11:59:57.048Z,1.70
2022-09-15T12:00:57.049Z,1.90
2022-09-15T12:01:57.130Z,2.00
2022-09-15T12:02:57.101Z,2.50
2022-09-15T12:03:57.022Z,1.80
2022-09-15T12:04:57.018Z,2.10
2022-09-15T12:05:56.976Z,1.80
2022-09-15T12:06:57.094Z,1.80
2022-09-15T12:07:56.971Z,1.90
2022-09-15T12:08:56.953Z,2.00
2022-09-15T12:09:56.966Z,2.30
2022-09-15T12:10:56.922Z,1.90
2022-09-15T12:11:56.932Z,1.80
2022-09-15T12:12:56.903Z,1.90
2022-09-15T12:13:56.917Z,1.80
2022-09-15T12:14:56.924Z,1.80
2022-09-15T12:15:57.521Z,1.70
2022-09-15T12:16:56.856Z,1.70
2022-09-15T12:17:56.862Z,1.60
2022-09-15T12:18:56.857Z,1.40
2022-09-15T12:19:56.886Z,1.20
2022-09-15T12:20:56.830Z,1.20
2022-09-15T12:21:56.828Z,1.10
2022-09-15T12:22:56.803Z,1.10
2022-09-15T12:23:56.778Z,1.00
2022-09-15T12:25:00.622Z,0.90
2022-09-15T12:25:56.768Z,1.00
2022-09-15T12:26:56.771Z,0.90
2022-09-15T12:27:56.773Z,0.90
2022-09-15T12:28:56.728Z,0.90
2022-09-15T12:29:56.742Z,0.90
2022-09-15T12:30:56.771Z,1.00
2022-09-15T12:31:56.710Z,1.00
2022-09-15T12:32:56.711Z,0.80
2022-09-15T12:33:56.683Z,0.90
2022-09-15T12:34:56.674Z,0.90
2022-09-15T12:35:56.659Z,1.10
2022-09-15T12:36:56.706Z,0.90
2022-09-15T12:37:56.645Z,1.30
2022-09-15T12:38:56.644Z,1.30
2022-09-15T12:39:56.691Z,0.90
2022-09-15T12:40:56.587Z,1.00
2022-09-15T12:41:56.599Z,1.00
2022-09-15T12:42:56.581Z,1.10
2022-09-15T12:43:56.582Z,1.20
2022-09-15T12:44:56.545Z,1.10
2022-09-15T12:45:56.641Z,1.00
2022-09-15T12:46:56.582Z,1.20
2022-09-15T12:47:56.550Z,1.10
2022-09-15T12:48:56.515Z,1.10
2022-09-15T12:49:56.515Z,1.20
2022-09-15T12:50:56.519Z,1.20
2022-09-15T12:51:56.469Z,1.10
2022-09-15T12:52:56.476Z,1.10
2022-09-15T12:53:56.500Z,1.30
2022-09-15T12:54:56.454Z,1.30
2022-09-15T12:55:56.423Z,1.20
2022-09-15T12:56:56.416Z,1.60
2022-09-15T12:57:56.435Z,1.90
2022-09-15T12:58:56.418Z,2.30
2022-09-15T12:59:56.391Z,2.80
2022-09-15T13:01:17.148Z,2.80
2022-09-15T13:01:57.429Z,2.10
2022-09-15T13:02:56.381Z,2.20
2022-09-15T13:03:56.392Z,2.50
2022-09-15T13:04:56.326Z,2.50
2022-09-15T13:05:56.345Z,2.10
2022-09-15T13:06:56.322Z,2.10
2022-09-15T13:07:56.287Z,3.20
2022-09-15T13:08:56.278Z,3.30
2022-09-15T13:09:56.284Z,3.90
2022-09-15T13:10:56.262Z,3.20
2022-09-15T13:11:56.281Z,2.90
2022-09-15T13:12:56.231Z,2.10
2022-09-15T13:13:56.221Z,1.90
2022-09-15T13:14:56.217Z,2.40
2022-09-15T13:15:56.325Z,2.00
2022-09-15T13:16:56.211Z,1.90
2022-09-15T13:17:56.204Z,1.70